sensor_id;sensor_type;location;lat;lon;timestamp;temperature;humidity
22173;DHT22;11252;50.596;17.648;2023-12-29T00:01:32;8.40;92.20
22173;DHT22;11252;50.596;17.648;2023-12-29T00:04:00;8.30;92.20
22173;DHT22;11252;50.596;17.648;2023-12-29T00:06:27;8.30;92.20
22173;DHT22;11252;50.596;17.648;2023-12-29T00:08:55;8.20;92.20
22173;DHT22;11252;50.596;17.648;2023-12-29T00:11:22;8.40;92.20
22173;DHT22;11252;50.596;17.648;2023-12-29T00:13:49;8.30;92.20
22173;DHT22;11252;50.596;17.648;2023-12-29T00:16:16;8.40;92.20
22173;DHT22;11252;50.596;17.648;2023-12-29T00:18:43;8.40;92.20
22173;DHT22;11252;50.596;17.648;2023-12-29T00:21:11;8.40;92.20
22173;DHT22;11252;50.596;17.648;2023-12-29T00:23:38;8.20;92.20
22173;DHT22;11252;50.596;17.648;2023-12-29T00:26:05;8.20;92.20
22173;DHT22;11252;50.596;17.648;2023-12-29T00:28:32;8.10;92.20
22173;DHT22;11252;50.596;17.648;2023-12-29T00:30:59;8.00;92.20
22173;DHT22;11252;50.596;17.648;2023-12-29T00:33:29;7.90;92.20
22173;DHT22;11252;50.596;17.648;2023-12-29T00:35:58;7.90;92.20
22173;DHT22;11252;50.596;17.648;2023-12-29T00:38:29;7.90;92.20
22173;DHT22;11252;50.596;17.648;2023-12-29T00:40:56;7.90;92.20
22173;DHT22;11252;50.596;17.648;2023-12-29T00:43:23;7.80;92.20
22173;DHT22;11252;50.596;17.648;2023-12-29T00:45:50;7.70;92.20
22173;DHT22;11252;50.596;17.648;2023-12-29T00:48:18;7.80;92.20
22173;DHT22;11252;50.596;17.648;2023-12-29T00:50:45;7.70;92.20
22173;DHT22;11252;50.596;17.648;2023-12-29T00:53:12;7.60;92.20
22173;DHT22;11252;50.596;17.648;2023-12-29T00:55:39;7.50;92.20
22173;DHT22;11252;50.596;17.648;2023-12-29T00:58:06;7.40;92.20
22173;DHT22;11252;50.596;17.648;2023-12-29T01:00:33;7.40;92.20
22173;DHT22;11252;50.596;17.648;2023-12-29T01:03:00;7.30;92.20
22173;DHT22;11252;50.596;17.648;2023-12-29T01:05:27;7.20;92.20
22173;DHT22;11252;50.596;17.648;2023-12-29T01:07:55;7.10;92.20
22173;DHT22;11252;50.596;17.648;2023-12-29T01:10:23;7.10;92.20
22173;DHT22;11252;50.596;17.648;2023-12-29T01:12:50;7.00;92.20
22173;DHT22;11252;50.596;17.648;2023-12-29T01:15:17;7.10;92.20
22173;DHT22;11252;50.596;17.648;2023-12-29T01:17:44;7.10;92.20
22173;DHT22;11252;50.596;17.648;2023-12-29T01:20:12;7.00;92.20
22173;DHT22;11252;50.596;17.648;2023-12-29T01:22:39;7.00;92.20
22173;DHT22;11252;50.596;17.648;2023-12-29T01:25:06;6.90;92.20
22173;DHT22;11252;50.596;17.648;2023-12-29T01:27:33;6.80;92.20
22173;DHT22;11252;50.596;17.648;2023-12-29T01:30:00;6.80;92.20
22173;DHT22;11252;50.596;17.648;2023-12-29T01:32:28;6.70;92.20
22173;DHT22;11252;50.596;17.648;2023-12-29T01:34:55;6.70;92.20
22173;DHT22;11252;50.596;17.648;2023-12-29T01:37:22;6.70;92.20
22173;DHT22;11252;50.596;17.648;2023-12-29T01:39:49;6.70;92.20
22173;DHT22;11252;50.596;17.648;2023-12-29T01:42:16;6.70;92.20
22173;DHT22;11252;50.596;17.648;2023-12-29T01:44:43;6.80;92.20
22173;DHT22;11252;50.596;17.648;2023-12-29T01:47:14;6.80;92.20
22173;DHT22;11252;50.596;17.648;2023-12-29T01:49:46;6.80;92.20
22173;DHT22;11252;50.596;17.648;2023-12-29T01:52:16;6.70;92.20
22173;DHT22;11252;50.596;17.648;2023-12-29T01:54:46;6.70;92.20
22173;DHT22;11252;50.596;17.648;2023-12-29T01:57:14;6.80;92.20
22173;DHT22;11252;50.596;17.648;2023-12-29T01:59:42;6.90;92.20
22173;DHT22;11252;50.596;17.648;2023-12-29T02:02:12;7.00;92.20
22173;DHT22;11252;50.596;17.648;2023-12-29T02:04:40;7.10;92.20
22173;DHT22;11252;50.596;17.648;2023-12-29T02:07:08;7.30;92.20
22173;DHT22;11252;50.596;17.648;2023-12-29T02:09:36;7.30;92.20
22173;DHT22;11252;50.596;17.648;2023-12-29T02:12:03;7.30;92.20
22173;DHT22;11252;50.596;17.648;2023-12-29T02:14:30;7.30;92.20
22173;DHT22;11252;50.596;17.648;2023-12-29T02:17:15;7.30;92.20
22173;DHT22;11252;50.596;17.648;2023-12-29T02:19:47;7.30;92.20
22173;DHT22;11252;50.596;17.648;2023-12-29T02:22:16;7.30;92.20
22173;DHT22;11252;50.596;17.648;2023-12-29T02:24:46;7.40;92.20
22173;DHT22;11252;50.596;17.648;2023-12-29T02:30:09;7.50;92.20
22173;DHT22;11252;50.596;17.648;2023-12-29T02:32:41;7.50;92.20
22173;DHT22;11252;50.596;17.648;2023-12-29T02:35:16;7.40;92.20
22173;DHT22;11252;50.596;17.648;2023-12-29T02:37:44;7.30;92.20
22173;DHT22;11252;50.596;17.648;2023-12-29T02:40:11;7.20;92.20
22173;DHT22;11252;50.596;17.648;2023-12-29T02:42:47;7.20;92.20
22173;DHT22;11252;50.596;17.648;2023-12-29T02:45:15;7.10;92.20
22173;DHT22;11252;50.596;17.648;2023-12-29T02:47:43;7.20;92.20
22173;DHT22;11252;50.596;17.648;2023-12-29T02:50:10;7.60;92.20
22173;DHT22;11252;50.596;17.648;2023-12-29T02:52:37;7.60;92.20
22173;DHT22;11252;50.596;17.648;2023-12-29T02:55:05;7.60;92.20
22173;DHT22;11252;50.596;17.648;2023-12-29T02:57:32;7.60;92.20
22173;DHT22;11252;50.596;17.648;2023-12-29T02:59:59;7.50;92.20
22173;DHT22;11252;50.596;17.648;2023-12-29T03:02:27;7.40;92.20
22173;DHT22;11252;50.596;17.648;2023-12-29T03:04:54;7.40;92.20
22173;DHT22;11252;50.596;17.648;2023-12-29T03:07:22;7.40;92.20
22173;DHT22;11252;50.596;17.648;2023-12-29T03:09:49;7.40;92.20
22173;DHT22;11252;50.596;17.648;2023-12-29T03:12:16;7.40;92.20
22173;DHT22;11252;50.596;17.648;2023-12-29T03:14:44;7.40;92.20
22173;DHT22;11252;50.596;17.648;2023-12-29T03:17:11;7.40;92.20
22173;DHT22;11252;50.596;17.648;2023-12-29T03:19:38;7.40;92.20
22173;DHT22;11252;50.596;17.648;2023-12-29T03:22:05;7.30;92.20
22173;DHT22;11252;50.596;17.648;2023-12-29T03:24:33;7.20;92.20
22173;DHT22;11252;50.596;17.648;2023-12-29T03:27:00;7.20;92.20
22173;DHT22;11252;50.596;17.648;2023-12-29T03:29:27;7.20;92.20
22173;DHT22;11252;50.596;17.648;2023-12-29T03:31:54;7.40;92.20
22173;DHT22;11252;50.596;17.648;2023-12-29T03:34:21;7.50;92.20
22173;DHT22;11252;50.596;17.648;2023-12-29T03:36:48;7.40;92.20
22173;DHT22;11252;50.596;17.648;2023-12-29T03:39:15;7.40;92.20
22173;DHT22;11252;50.596;17.648;2023-12-29T03:41:43;7.30;92.20
22173;DHT22;11252;50.596;17.648;2023-12-29T03:44:10;7.30;92.20
22173;DHT22;11252;50.596;17.648;2023-12-29T03:46:39;7.30;92.20
22173;DHT22;11252;50.596;17.648;2023-12-29T03:49:06;7.20;92.20
22173;DHT22;11252;50.596;17.648;2023-12-29T03:51:33;7.10;92.20
22173;DHT22;11252;50.596;17.648;2023-12-29T03:54:00;7.00;92.20
22173;DHT22;11252;50.596;17.648;2023-12-29T03:56:27;7.00;92.20
22173;DHT22;11252;50.596;17.648;2023-12-29T03:58:54;7.00;92.20
22173;DHT22;11252;50.596;17.648;2023-12-29T04:01:21;7.10;92.20
22173;DHT22;11252;50.596;17.648;2023-12-29T04:03:48;7.20;92.20
22173;DHT22;11252;50.596;17.648;2023-12-29T04:06:15;7.20;92.20
22173;DHT22;11252;50.596;17.648;2023-12-29T04:08:43;7.20;92.20
22173;DHT22;11252;50.596;17.648;2023-12-29T04:11:10;7.20;92.20
22173;DHT22;11252;50.596;17.648;2023-12-29T04:13:38;7.20;92.20
22173;DHT22;11252;50.596;17.648;2023-12-29T04:16:05;7.10;92.20
22173;DHT22;11252;50.596;17.648;2023-12-29T04:18:32;7.10;92.20
22173;DHT22;11252;50.596;17.648;2023-12-29T04:21:00;7.00;92.20
22173;DHT22;11252;50.596;17.648;2023-12-29T04:23:27;7.00;92.20
22173;DHT22;11252;50.596;17.648;2023-12-29T04:25:54;7.10;92.20
22173;DHT22;11252;50.596;17.648;2023-12-29T04:28:22;7.10;92.20
22173;DHT22;11252;50.596;17.648;2023-12-29T04:30:49;7.10;92.20
22173;DHT22;11252;50.596;17.648;2023-12-29T04:33:17;7.00;92.20
22173;DHT22;11252;50.596;17.648;2023-12-29T04:35:44;7.00;92.20
22173;DHT22;11252;50.596;17.648;2023-12-29T04:38:11;7.10;92.20
22173;DHT22;11252;50.596;17.648;2023-12-29T04:40:38;7.10;92.20
22173;DHT22;11252;50.596;17.648;2023-12-29T04:43:06;7.10;92.20
22173;DHT22;11252;50.596;17.648;2023-12-29T04:45:33;7.10;92.20
22173;DHT22;11252;50.596;17.648;2023-12-29T04:48:00;7.10;92.20
22173;DHT22;11252;50.596;17.648;2023-12-29T04:50:28;7.00;92.20
22173;DHT22;11252;50.596;17.648;2023-12-29T04:52:55;7.00;92.20
22173;DHT22;11252;50.596;17.648;2023-12-29T04:55:22;7.00;92.20
22173;DHT22;11252;50.596;17.648;2023-12-29T04:57:49;7.00;92.20
22173;DHT22;11252;50.596;17.648;2023-12-29T05:00:16;6.90;92.20
22173;DHT22;11252;50.596;17.648;2023-12-29T05:02:43;6.70;92.20
22173;DHT22;11252;50.596;17.648;2023-12-29T05:05:10;6.60;92.20
22173;DHT22;11252;50.596;17.648;2023-12-29T05:07:37;6.50;92.20
22173;DHT22;11252;50.596;17.648;2023-12-29T05:10:05;6.50;92.20
22173;DHT22;11252;50.596;17.648;2023-12-29T05:12:33;6.50;92.20
22173;DHT22;11252;50.596;17.648;2023-12-29T05:15:00;6.40;92.20
22173;DHT22;11252;50.596;17.648;2023-12-29T05:17:27;6.40;92.20
22173;DHT22;11252;50.596;17.648;2023-12-29T05:19:54;6.40;92.20
22173;DHT22;11252;50.596;17.648;2023-12-29T05:22:21;6.40;92.20
22173;DHT22;11252;50.596;17.648;2023-12-29T05:24:48;6.50;92.20
22173;DHT22;11252;50.596;17.648;2023-12-29T05:27:15;6.50;92.20
22173;DHT22;11252;50.596;17.648;2023-12-29T05:29:42;6.50;92.20
22173;DHT22;11252;50.596;17.648;2023-12-29T05:32:09;6.50;92.20
22173;DHT22;11252;50.596;17.648;2023-12-29T05:34:36;6.50;92.20
22173;DHT22;11252;50.596;17.648;2023-12-29T05:37:04;6.50;92.20
22173;DHT22;11252;50.596;17.648;2023-12-29T05:39:31;6.50;92.20
22173;DHT22;11252;50.596;17.648;2023-12-29T05:41:59;6.60;92.20
22173;DHT22;11252;50.596;17.648;2023-12-29T05:44:26;6.60;92.20
22173;DHT22;11252;50.596;17.648;2023-12-29T05:46:53;6.50;92.20
22173;DHT22;11252;50.596;17.648;2023-12-29T05:49:25;6.70;92.20
22173;DHT22;11252;50.596;17.648;2023-12-29T05:51:53;7.20;92.20
22173;DHT22;11252;50.596;17.648;2023-12-29T05:54:20;7.50;92.20
22173;DHT22;11252;50.596;17.648;2023-12-29T05:56:47;7.90;92.20
22173;DHT22;11252;50.596;17.648;2023-12-29T05:59:14;8.00;92.20
22173;DHT22;11252;50.596;17.648;2023-12-29T06:01:41;8.20;92.20
22173;DHT22;11252;50.596;17.648;2023-12-29T06:04:09;8.30;92.20
22173;DHT22;11252;50.596;17.648;2023-12-29T06:06:36;8.30;92.20
22173;DHT22;11252;50.596;17.648;2023-12-29T06:09:03;8.40;92.20
22173;DHT22;11252;50.596;17.648;2023-12-29T06:11:30;8.30;92.20
22173;DHT22;11252;50.596;17.648;2023-12-29T06:13:57;8.40;92.20
22173;DHT22;11252;50.596;17.648;2023-12-29T06:16:24;8.40;92.20
22173;DHT22;11252;50.596;17.648;2023-12-29T06:18:54;8.30;92.20
22173;DHT22;11252;50.596;17.648;2023-12-29T06:21:21;8.20;92.20
22173;DHT22;11252;50.596;17.648;2023-12-29T06:23:48;8.20;92.20
22173;DHT22;11252;50.596;17.648;2023-12-29T06:26:19;8.10;92.20
22173;DHT22;11252;50.596;17.648;2023-12-29T06:28:47;8.10;92.20
22173;DHT22;11252;50.596;17.648;2023-12-29T06:31:16;7.90;92.20
22173;DHT22;11252;50.596;17.648;2023-12-29T06:33:44;7.80;92.20
22173;DHT22;11252;50.596;17.648;2023-12-29T06:36:12;7.60;92.20
22173;DHT22;11252;50.596;17.648;2023-12-29T06:38:39;7.40;92.20
22173;DHT22;11252;50.596;17.648;2023-12-29T06:41:06;7.20;92.20
22173;DHT22;11252;50.596;17.648;2023-12-29T06:43:34;7.10;92.20
22173;DHT22;11252;50.596;17.648;2023-12-29T06:46:01;7.00;92.20
22173;DHT22;11252;50.596;17.648;2023-12-29T06:48:28;6.90;92.20
22173;DHT22;11252;50.596;17.648;2023-12-29T06:50:56;6.80;92.20
22173;DHT22;11252;50.596;17.648;2023-12-29T06:53:23;6.80;92.20
22173;DHT22;11252;50.596;17.648;2023-12-29T06:55:51;6.70;92.20
22173;DHT22;11252;50.596;17.648;2023-12-29T06:58:19;6.60;92.20
22173;DHT22;11252;50.596;17.648;2023-12-29T07:00:46;6.50;92.20
22173;DHT22;11252;50.596;17.648;2023-12-29T07:03:14;6.50;92.20
22173;DHT22;11252;50.596;17.648;2023-12-29T07:05:42;6.40;92.20
22173;DHT22;11252;50.596;17.648;2023-12-29T07:08:12;6.70;92.20
22173;DHT22;11252;50.596;17.648;2023-12-29T07:10:39;6.70;92.20
22173;DHT22;11252;50.596;17.648;2023-12-29T07:13:06;7.10;92.20
22173;DHT22;11252;50.596;17.648;2023-12-29T07:15:33;7.30;92.20
22173;DHT22;11252;50.596;17.648;2023-12-29T07:18:00;7.30;92.20
22173;DHT22;11252;50.596;17.648;2023-12-29T07:20:28;7.30;92.20
22173;DHT22;11252;50.596;17.648;2023-12-29T07:22:55;7.30;92.20
22173;DHT22;11252;50.596;17.648;2023-12-29T07:25:22;7.30;92.20
22173;DHT22;11252;50.596;17.648;2023-12-29T07:27:50;7.30;92.20
22173;DHT22;11252;50.596;17.648;2023-12-29T07:30:17;7.30;92.20
22173;DHT22;11252;50.596;17.648;2023-12-29T07:32:44;7.20;92.20
22173;DHT22;11252;50.596;17.648;2023-12-29T07:35:12;7.20;92.20
22173;DHT22;11252;50.596;17.648;2023-12-29T07:37:42;7.10;92.20
22173;DHT22;11252;50.596;17.648;2023-12-29T07:40:13;7.10;92.20
22173;DHT22;11252;50.596;17.648;2023-12-29T07:42:40;7.10;92.20
22173;DHT22;11252;50.596;17.648;2023-12-29T07:45:08;7.20;92.20
22173;DHT22;11252;50.596;17.648;2023-12-29T07:47:36;7.50;92.20
22173;DHT22;11252;50.596;17.648;2023-12-29T07:50:04;8.10;92.20
22173;DHT22;11252;50.596;17.648;2023-12-29T07:52:32;8.20;92.20
22173;DHT22;11252;50.596;17.648;2023-12-29T07:54:59;8.30;92.20
22173;DHT22;11252;50.596;17.648;2023-12-29T07:57:27;8.60;92.20
22173;DHT22;11252;50.596;17.648;2023-12-29T07:59:54;8.80;92.20
22173;DHT22;11252;50.596;17.648;2023-12-29T08:02:21;9.00;92.20
22173;DHT22;11252;50.596;17.648;2023-12-29T08:04:49;9.10;92.20
22173;DHT22;11252;50.596;17.648;2023-12-29T08:07:16;9.20;92.20
22173;DHT22;11252;50.596;17.648;2023-12-29T08:09:43;9.30;92.20
22173;DHT22;11252;50.596;17.648;2023-12-29T08:12:11;9.30;92.20
22173;DHT22;11252;50.596;17.648;2023-12-29T08:14:38;9.40;92.20
22173;DHT22;11252;50.596;17.648;2023-12-29T08:17:05;9.60;92.20
22173;DHT22;11252;50.596;17.648;2023-12-29T08:19:33;9.70;92.20
22173;DHT22;11252;50.596;17.648;2023-12-29T08:22:01;9.80;92.20
22173;DHT22;11252;50.596;17.648;2023-12-29T08:24:28;9.90;92.20
22173;DHT22;11252;50.596;17.648;2023-12-29T08:26:55;10.00;92.20
22173;DHT22;11252;50.596;17.648;2023-12-29T08:29:22;10.00;92.20
22173;DHT22;11252;50.596;17.648;2023-12-29T08:31:52;10.00;92.20
22173;DHT22;11252;50.596;17.648;2023-12-29T08:34:19;10.00;92.20
22173;DHT22;11252;50.596;17.648;2023-12-29T08:36:47;10.10;92.20
22173;DHT22;11252;50.596;17.648;2023-12-29T08:39:14;10.20;92.20
22173;DHT22;11252;50.596;17.648;2023-12-29T08:41:41;10.30;92.20
22173;DHT22;11252;50.596;17.648;2023-12-29T08:44:08;10.30;92.20
22173;DHT22;11252;50.596;17.648;2023-12-29T08:46:36;10.30;92.20
22173;DHT22;11252;50.596;17.648;2023-12-29T08:49:03;10.40;92.20
22173;DHT22;11252;50.596;17.648;2023-12-29T08:51:30;10.40;92.20
22173;DHT22;11252;50.596;17.648;2023-12-29T08:53:57;10.40;92.20
22173;DHT22;11252;50.596;17.648;2023-12-29T08:56:24;10.40;92.20
22173;DHT22;11252;50.596;17.648;2023-12-29T08:58:54;10.50;92.20
22173;DHT22;11252;50.596;17.648;2023-12-29T09:01:21;10.60;92.20
22173;DHT22;11252;50.596;17.648;2023-12-29T09:03:49;10.60;92.20
22173;DHT22;11252;50.596;17.648;2023-12-29T09:06:16;10.60;92.20
22173;DHT22;11252;50.596;17.648;2023-12-29T09:08:43;10.70;92.20
22173;DHT22;11252;50.596;17.648;2023-12-29T09:11:10;10.70;92.20
22173;DHT22;11252;50.596;17.648;2023-12-29T09:13:39;10.80;92.20
22173;DHT22;11252;50.596;17.648;2023-12-29T09:16:06;10.80;92.20
22173;DHT22;11252;50.596;17.648;2023-12-29T09:18:34;10.80;92.20
22173;DHT22;11252;50.596;17.648;2023-12-29T09:21:03;10.80;92.20
22173;DHT22;11252;50.596;17.648;2023-12-29T09:23:30;10.90;92.20
22173;DHT22;11252;50.596;17.648;2023-12-29T09:25:59;11.10;92.20
22173;DHT22;11252;50.596;17.648;2023-12-29T09:28:27;11.20;92.20
22173;DHT22;11252;50.596;17.648;2023-12-29T09:30:55;11.40;92.20
22173;DHT22;11252;50.596;17.648;2023-12-29T09:33:22;11.60;91.50
22173;DHT22;11252;50.596;17.648;2023-12-29T09:35:50;11.70;90.60
22173;DHT22;11252;50.596;17.648;2023-12-29T09:38:19;12.00;89.90
22173;DHT22;11252;50.596;17.648;2023-12-29T09:40:47;12.20;90.00
22173;DHT22;11252;50.596;17.648;2023-12-29T09:43:16;12.40;89.10
22173;DHT22;11252;50.596;17.648;2023-12-29T09:45:45;12.80;88.60
22173;DHT22;11252;50.596;17.648;2023-12-29T09:48:16;13.20;87.80
22173;DHT22;11252;50.596;17.648;2023-12-29T09:50:50;12.90;86.50
22173;DHT22;11252;50.596;17.648;2023-12-29T09:53:22;12.60;87.90
22173;DHT22;11252;50.596;17.648;2023-12-29T09:55:51;12.50;87.90
22173;DHT22;11252;50.596;17.648;2023-12-29T09:58:21;12.40;88.30
22173;DHT22;11252;50.596;17.648;2023-12-29T10:00:49;12.40;88.30
22173;DHT22;11252;50.596;17.648;2023-12-29T10:03:17;12.40;88.20
22173;DHT22;11252;50.596;17.648;2023-12-29T10:05:50;12.40;88.20
22173;DHT22;11252;50.596;17.648;2023-12-29T10:08:18;12.20;88.50
22173;DHT22;11252;50.596;17.648;2023-12-29T10:10:46;12.10;89.20
22173;DHT22;11252;50.596;17.648;2023-12-29T10:13:17;12.20;88.80
22173;DHT22;11252;50.596;17.648;2023-12-29T10:15:54;12.10;89.30
22173;DHT22;11252;50.596;17.648;2023-12-29T10:21:01;12.10;89.20
22173;DHT22;11252;50.596;17.648;2023-12-29T10:23:38;11.90;89.60
22173;DHT22;11252;50.596;17.648;2023-12-29T10:26:07;11.70;90.30
22173;DHT22;11252;50.596;17.648;2023-12-29T10:28:37;11.50;90.70
22173;DHT22;11252;50.596;17.648;2023-12-29T10:31:10;11.40;91.10
22173;DHT22;11252;50.596;17.648;2023-12-29T10:33:40;11.30;91.30
22173;DHT22;11252;50.596;17.648;2023-12-29T10:36:07;11.30;91.10
22173;DHT22;11252;50.596;17.648;2023-12-29T10:38:39;11.30;91.30
22173;DHT22;11252;50.596;17.648;2023-12-29T10:41:16;11.30;91.50
22173;DHT22;11252;50.596;17.648;2023-12-29T10:43:45;11.30;91.50
22173;DHT22;11252;50.596;17.648;2023-12-29T10:46:19;11.30;91.70
22173;DHT22;11252;50.596;17.648;2023-12-29T10:48:48;11.20;92.00
22173;DHT22;11252;50.596;17.648;2023-12-29T10:51:15;11.20;91.90
22173;DHT22;11252;50.596;17.648;2023-12-29T10:53:54;11.20;92.10
22173;DHT22;11252;50.596;17.648;2023-12-29T10:56:23;11.30;91.80
22173;DHT22;11252;50.596;17.648;2023-12-29T10:59:08;11.20;92.00
22173;DHT22;11252;50.596;17.648;2023-12-29T11:01:36;11.20;92.00
22173;DHT22;11252;50.596;17.648;2023-12-29T11:04:05;11.30;91.70
22173;DHT22;11252;50.596;17.648;2023-12-29T11:06:43;11.30;92.10
22173;DHT22;11252;50.596;17.648;2023-12-29T11:09:14;11.30;92.20
22173;DHT22;11252;50.596;17.648;2023-12-29T11:11:42;11.30;92.00
22173;DHT22;11252;50.596;17.648;2023-12-29T11:14:10;11.30;91.80
22173;DHT22;11252;50.596;17.648;2023-12-29T11:16:39;11.40;91.70
22173;DHT22;11252;50.596;17.648;2023-12-29T11:19:10;11.50;91.80
22173;DHT22;11252;50.596;17.648;2023-12-29T11:21:40;11.50;91.60
22173;DHT22;11252;50.596;17.648;2023-12-29T11:24:08;11.50;91.80
22173;DHT22;11252;50.596;17.648;2023-12-29T11:26:38;11.40;91.50
22173;DHT22;11252;50.596;17.648;2023-12-29T11:29:08;11.40;92.20
22173;DHT22;11252;50.596;17.648;2023-12-29T11:31:35;11.30;92.20
22173;DHT22;11252;50.596;17.648;2023-12-29T11:34:10;11.30;92.20
22173;DHT22;11252;50.596;17.648;2023-12-29T11:36:45;11.20;92.20
22173;DHT22;11252;50.596;17.648;2023-12-29T11:39:30;11.20;92.20
22173;DHT22;11252;50.596;17.648;2023-12-29T11:42:07;11.20;92.10
22173;DHT22;11252;50.596;17.648;2023-12-29T11:44:39;11.20;92.00
22173;DHT22;11252;50.596;17.648;2023-12-29T11:47:35;11.20;92.20
22173;DHT22;11252;50.596;17.648;2023-12-29T11:50:06;11.20;92.00
22173;DHT22;11252;50.596;17.648;2023-12-29T11:52:38;11.20;92.20
22173;DHT22;11252;50.596;17.648;2023-12-29T11:55:13;11.10;92.20
22173;DHT22;11252;50.596;17.648;2023-12-29T11:57:42;11.10;92.20
22173;DHT22;11252;50.596;17.648;2023-12-29T12:00:10;11.20;92.20
22173;DHT22;11252;50.596;17.648;2023-12-29T12:02:37;11.10;92.20
22173;DHT22;11252;50.596;17.648;2023-12-29T12:05:05;11.10;92.20
22173;DHT22;11252;50.596;17.648;2023-12-29T12:10:28;11.20;92.20
22173;DHT22;11252;50.596;17.648;2023-12-29T12:12:59;11.20;92.20
22173;DHT22;11252;50.596;17.648;2023-12-29T12:17:54;11.30;91.90
22173;DHT22;11252;50.596;17.648;2023-12-29T12:20:22;11.30;92.10
22173;DHT22;11252;50.596;17.648;2023-12-29T12:22:56;11.30;92.10
22173;DHT22;11252;50.596;17.648;2023-12-29T12:25:26;11.30;92.20
22173;DHT22;11252;50.596;17.648;2023-12-29T12:27:58;11.50;91.60
22173;DHT22;11252;50.596;17.648;2023-12-29T12:30:25;11.60;91.70
22173;DHT22;11252;50.596;17.648;2023-12-29T12:33:00;11.50;92.00
22173;DHT22;11252;50.596;17.648;2023-12-29T12:35:29;11.50;92.00
22173;DHT22;11252;50.596;17.648;2023-12-29T12:40:40;11.40;92.20
22173;DHT22;11252;50.596;17.648;2023-12-29T12:43:07;11.30;92.20
22173;DHT22;11252;50.596;17.648;2023-12-29T12:45:48;11.30;91.80
22173;DHT22;11252;50.596;17.648;2023-12-29T12:50:46;11.30;91.90
22173;DHT22;11252;50.596;17.648;2023-12-29T12:53:14;11.40;91.90
22173;DHT22;11252;50.596;17.648;2023-12-29T12:55:48;11.40;91.80
22173;DHT22;11252;50.596;17.648;2023-12-29T12:58:18;11.30;92.20
22173;DHT22;11252;50.596;17.648;2023-12-29T13:00:46;11.30;92.10
22173;DHT22;11252;50.596;17.648;2023-12-29T13:03:18;11.30;92.20
22173;DHT22;11252;50.596;17.648;2023-12-29T13:05:45;11.30;92.10
22173;DHT22;11252;50.596;17.648;2023-12-29T13:08:13;11.40;91.60
22173;DHT22;11252;50.596;17.648;2023-12-29T13:10:46;11.40;92.10
22173;DHT22;11252;50.596;17.648;2023-12-29T13:13:14;11.40;91.70
22173;DHT22;11252;50.596;17.648;2023-12-29T13:15:51;11.40;91.80
22173;DHT22;11252;50.596;17.648;2023-12-29T13:18:30;11.30;91.90
22173;DHT22;11252;50.596;17.648;2023-12-29T13:21:02;11.30;92.10
22173;DHT22;11252;50.596;17.648;2023-12-29T13:23:29;11.40;92.00
22173;DHT22;11252;50.596;17.648;2023-12-29T13:26:01;11.50;91.60
22173;DHT22;11252;50.596;17.648;2023-12-29T13:28:29;11.50;91.60
22173;DHT22;11252;50.596;17.648;2023-12-29T13:31:02;11.30;92.00
22173;DHT22;11252;50.596;17.648;2023-12-29T13:38:59;11.20;92.20
22173;DHT22;11252;50.596;17.648;2023-12-29T13:41:30;11.10;92.20
22173;DHT22;11252;50.596;17.648;2023-12-29T13:43:59;11.00;92.20
22173;DHT22;11252;50.596;17.648;2023-12-29T13:46:27;11.00;92.20
22173;DHT22;11252;50.596;17.648;2023-12-29T13:48:55;11.00;92.20
22173;DHT22;11252;50.596;17.648;2023-12-29T13:51:25;10.90;92.20
22173;DHT22;11252;50.596;17.648;2023-12-29T13:54:02;10.80;92.20
22173;DHT22;11252;50.596;17.648;2023-12-29T13:56:31;10.80;92.20
22173;DHT22;11252;50.596;17.648;2023-12-29T13:58:58;10.70;92.20
22173;DHT22;11252;50.596;17.648;2023-12-29T14:01:35;10.70;92.20
22173;DHT22;11252;50.596;17.648;2023-12-29T14:04:07;10.60;92.20
22173;DHT22;11252;50.596;17.648;2023-12-29T14:09:05;10.50;92.20
22173;DHT22;11252;50.596;17.648;2023-12-29T14:11:33;10.50;92.20
22173;DHT22;11252;50.596;17.648;2023-12-29T14:14:00;10.50;92.20
22173;DHT22;11252;50.596;17.648;2023-12-29T14:16:27;10.50;92.20
22173;DHT22;11252;50.596;17.648;2023-12-29T14:18:58;10.40;92.20
22173;DHT22;11252;50.596;17.648;2023-12-29T14:21:29;10.50;92.20
22173;DHT22;11252;50.596;17.648;2023-12-29T14:26:39;10.30;92.20
22173;DHT22;11252;50.596;17.648;2023-12-29T14:29:09;10.30;92.20
22173;DHT22;11252;50.596;17.648;2023-12-29T14:31:43;10.20;92.20
22173;DHT22;11252;50.596;17.648;2023-12-29T14:34:12;10.20;92.20
22173;DHT22;11252;50.596;17.648;2023-12-29T14:36:41;10.20;92.20
22173;DHT22;11252;50.596;17.648;2023-12-29T14:39:10;10.20;92.20
22173;DHT22;11252;50.596;17.648;2023-12-29T14:41:38;10.20;92.20
22173;DHT22;11252;50.596;17.648;2023-12-29T14:44:05;10.20;92.20
22173;DHT22;11252;50.596;17.648;2023-12-29T14:46:32;10.20;92.20
22173;DHT22;11252;50.596;17.648;2023-12-29T14:49:04;10.20;92.20
22173;DHT22;11252;50.596;17.648;2023-12-29T14:51:32;10.20;92.20
22173;DHT22;11252;50.596;17.648;2023-12-29T14:53:59;10.20;92.20
22173;DHT22;11252;50.596;17.648;2023-12-29T14:56:26;10.30;92.20
22173;DHT22;11252;50.596;17.648;2023-12-29T14:58:53;10.30;92.20
22173;DHT22;11252;50.596;17.648;2023-12-29T15:01:21;10.30;92.20
22173;DHT22;11252;50.596;17.648;2023-12-29T15:03:48;10.30;92.20
22173;DHT22;11252;50.596;17.648;2023-12-29T15:06:15;10.30;92.20
22173;DHT22;11252;50.596;17.648;2023-12-29T15:08:42;10.30;92.20
22173;DHT22;11252;50.596;17.648;2023-12-29T15:11:10;10.40;92.20
22173;DHT22;11252;50.596;17.648;2023-12-29T15:13:37;10.50;92.20
22173;DHT22;11252;50.596;17.648;2023-12-29T15:16:06;10.50;92.20
22173;DHT22;11252;50.596;17.648;2023-12-29T15:18:34;10.50;92.20
22173;DHT22;11252;50.596;17.648;2023-12-29T15:21:01;10.40;92.20
22173;DHT22;11252;50.596;17.648;2023-12-29T15:23:28;10.40;92.20
22173;DHT22;11252;50.596;17.648;2023-12-29T15:25:55;10.30;92.20
22173;DHT22;11252;50.596;17.648;2023-12-29T15:28:23;10.20;92.20
22173;DHT22;11252;50.596;17.648;2023-12-29T15:30:50;10.20;92.20
22173;DHT22;11252;50.596;17.648;2023-12-29T15:33:18;10.20;92.20
22173;DHT22;11252;50.596;17.648;2023-12-29T15:35:46;10.10;92.20
22173;DHT22;11252;50.596;17.648;2023-12-29T15:38:13;10.00;92.20
22173;DHT22;11252;50.596;17.648;2023-12-29T15:40:41;9.90;92.20
22173;DHT22;11252;50.596;17.648;2023-12-29T15:43:09;9.80;92.20
22173;DHT22;11252;50.596;17.648;2023-12-29T15:45:36;9.70;92.20
22173;DHT22;11252;50.596;17.648;2023-12-29T15:48:04;9.70;92.20
22173;DHT22;11252;50.596;17.648;2023-12-29T15:50:32;9.70;92.20
22173;DHT22;11252;50.596;17.648;2023-12-29T15:52:59;9.60;92.20
22173;DHT22;11252;50.596;17.648;2023-12-29T15:55:26;9.60;92.20
22173;DHT22;11252;50.596;17.648;2023-12-29T15:57:53;9.70;92.20
22173;DHT22;11252;50.596;17.648;2023-12-29T16:00:21;9.70;92.20